Time;durP1;ratioP1;P1;durP2;ratioP2;P2;SDS_P1;SDS_P2;PMS_P1;PMS_P2;Temp;Humidity;BMP_temperature;BMP_pressure;BME280_temperature;BME280_humidity;BME280_pressure;Samples;Min_cycle;Max_cycle;Signal;HPM_P1;HPM_P2
2022/06/16 00:01:32;;;;;;;;;;;;;;;;;;5064646;28;19931;-84
2022/06/16 00:03:59;;;;;;;;;;;;;;;;;;5065672;28;19924;-85
2022/06/16 00:06:25;;;;;;;;;;;;;;;;;;5061554;28;19971;-84
2022/06/16 00:08:51;;;;;;;;;;;;;;;;;;5060705;28;19963;-83
2022/06/16 00:11:16;;;;;;;;;;;;;;;;;;5058420;28;19928;-84
2022/06/16 00:13:42;;;;;;;;;;;;;;;;;;5078914;28;19924;-85
2022/06/16 00:16:08;;;;;;;;;;;;;;;;;;5066711;28;19924;-84
2022/06/16 00:18:34;;;;;;;;;;;;;;;;;;5062002;28;19982;-84
2022/06/16 00:21:00;;;;;;;;;;;;;;;;;;5080477;28;19931;-88
2022/06/16 00:23:26;;;;;;;;;;;;;;;;;;5059241;28;19943;-85
2022/06/16 00:25:52;;;;;;;;;;;;;;;;;;5080805;28;20072;-83
2022/06/16 00:28:18;;;;;;;;;;;;;;;;;;5085351;28;19923;-83
2022/06/16 00:30:44;;;;;;;;;;;;;;;;;;5082264;28;20007;-85
2022/06/16 00:33:10;;;;;;;;;;;;;;;;;;5062688;28;19993;-86
2022/06/16 00:35:36;;;;;;;;;;;;;;;;;;5082549;28;19935;-84
2022/06/16 00:38:02;;;;;;;;;;;;;;;;;;5057904;28;19946;-83
2022/06/16 00:40:28;;;;;;;;;;;;;;;;;;5058725;28;19932;-83
2022/06/16 00:42:54;;;;;;;;;;;;;;;;;;5070095;28;19924;-83
2022/06/16 00:45:19;;;;;;;;;;;;;;;;;;5061994;28;19924;-83
2022/06/16 00:47:45;;;;;;;;;;;;;;;;;;5079084;28;19934;-84
2022/06/16 00:50:11;;;;;;;;;;;;;;;;;;5065519;28;20002;-83
2022/06/16 00:52:37;;;;;;;;;;;;;;;;;;5084236;28;19969;-85
2022/06/16 00:55:03;;;;;;;;;;;;;;;;;;5081382;28;19932;-84
2022/06/16 00:57:29;;;;;;;;;;;;;;;;;;5058212;28;20009;-84
2022/06/16 00:59:55;;;;;;;;;;;;;;;;;;5059225;28;20397;-84
2022/06/16 01:02:21;;;;;;;;;;;;;;;;;;5081884;28;20508;-84
2022/06/16 01:04:53;;;;;;;;;;;;;;;;;;5061441;28;20344;-86
2022/06/16 01:07:19;;;;;;;;;;;;;;;;;;5063271;28;20006;-83
2022/06/16 01:09:45;;;;;;;;;;;;;;;;;;5056431;28;20035;-83
2022/06/16 01:14:56;;;;;;;;;;;;;;;;;;5080829;28;19946;-82
2022/06/16 01:17:22;;;;;;;;;;;;;;;;;;5078613;28;20375;-83
2022/06/16 01:19:48;;;;;;;;;;;;;;;;;;5074485;28;20627;-83
2022/06/16 01:22:14;;;;;;;;;;;;;;;;;;5058013;28;19924;-85
2022/06/16 01:24:39;;;;;;;;;;;;;;;;;;5070008;28;19947;-83
2022/06/16 01:27:05;;;;;;;;;;;;;;;;;;5080965;28;20174;-83
2022/06/16 01:29:33;;;;;;;;;;;;;;;;;;5070370;28;19924;-83
2022/06/16 01:31:59;;;;;;;;;;;;;;;;;;5068833;28;19970;-85
2022/06/16 01:34:26;;;;;;;;;;;;;;;;;;5072239;28;19924;-84
2022/06/16 01:36:52;;;;;;;;;;;;;;;;;;5060978;28;20337;-86
2022/06/16 01:39:17;;;;;;;;;;;;;;;;;;5069218;28;19928;-88
2022/06/16 01:41:43;;;;;;;;;;;;;;;;;;5068118;28;19971;-83
2022/06/16 01:44:09;;;;;;;;;;;;;;;;;;5060662;28;20015;-83
2022/06/16 01:46:35;;;;;;;;;;;;;;;;;;5067497;28;19999;-85
2022/06/16 01:49:01;;;;;;;;;;;;;;;;;;5076812;28;19928;-86
2022/06/16 01:51:27;;;;;;;;;;;;;;;;;;5069859;28;19932;-84
2022/06/16 01:53:53;;;;;;;;;;;;;;;;;;5064314;28;19927;-84
2022/06/16 01:56:19;;;;;;;;;;;;;;;;;;5083417;28;20015;-85
2022/06/16 01:58:45;;;;;;;;;;;;;;;;;;5080127;28;19924;-83
2022/06/16 02:01:11;;;;;;;;;;;;;;;;;;5058729;28;19928;-83
2022/06/16 02:03:37;;;;;;;;;;;;;;;;;;5081267;28;19928;-84
2022/06/16 02:06:03;;;;;;;;;;;;;;;;;;5061097;28;19931;-84
2022/06/16 02:08:29;;;;;;;;;;;;;;;;;;5060710;28;19977;-83
2022/06/16 02:10:55;;;;;;;;;;;;;;;;;;5075451;28;19932;-85
2022/06/16 02:13:21;;;;;;;;;;;;;;;;;;5059464;28;19931;-84
2022/06/16 02:15:47;;;;;;;;;;;;;;;;;;5064157;28;20024;-83
2022/06/16 02:18:13;;;;;;;;;;;;;;;;;;5062060;28;20065;-83
2022/06/16 02:20:39;;;;;;;;;;;;;;;;;;5068164;28;20018;-84
2022/06/16 02:23:06;;;;;;;;;;;;;;;;;;5079573;28;20393;-84
2022/06/16 02:25:32;;;;;;;;;;;;;;;;;;5078206;28;20413;-84
2022/06/16 02:27:58;;;;;;;;;;;;;;;;;;5073467;28;19924;-83
2022/06/16 02:30:24;;;;;;;;;;;;;;;;;;5067368;28;19935;-84
2022/06/16 02:32:50;;;;;;;;;;;;;;;;;;5061285;28;19928;-83
2022/06/16 02:35:16;;;;;;;;;;;;;;;;;;5060980;28;21487;-83
2022/06/16 02:37:43;;;;;;;;;;;;;;;;;;5073932;28;19924;-84
2022/06/16 02:40:14;;;;;;;;;;;;;;;;;;5061004;28;20013;-86
2022/06/16 02:42:40;;;;;;;;;;;;;;;;;;5061588;28;19950;-85
2022/06/16 02:45:06;;;;;;;;;;;;;;;;;;5063699;28;19924;-84
2022/06/16 02:47:48;;;;;;;;;;;;;;;;;;5077725;28;20011;-83
2022/06/16 02:50:14;;;;;;;;;;;;;;;;;;5061562;28;19931;-83
2022/06/16 02:52:40;;;;;;;;;;;;;;;;;;5064019;28;19931;-85
2022/06/16 02:55:06;;;;;;;;;;;;;;;;;;5076872;28;19985;-84
2022/06/16 02:57:32;;;;;;;;;;;;;;;;;;5063941;28;19928;-83
2022/06/16 02:59:58;;;;;;;;;;;;;;;;;;5063692;28;19924;-84
2022/06/16 03:02:24;;;;;;;;;;;;;;;;;;5081210;28;19931;-84
2022/06/16 03:04:50;;;;;;;;;;;;;;;;;;5085861;28;19998;-84
2022/06/16 03:07:16;;;;;;;;;;;;;;;;;;5081034;28;20339;-83
2022/06/16 03:09:42;;;;;;;;;;;;;;;;;;5077096;28;20385;-83
2022/06/16 03:12:08;;;;;;;;;;;;;;;;;;5080186;28;20016;-83
2022/06/16 03:14:34;;;;;;;;;;;;;;;;;;5079590;28;21417;-85
2022/06/16 03:17:01;;;;;;;;;;;;;;;;;;5069687;28;20390;-84
2022/06/16 03:19:27;;;;;;;;;;;;;;;;;;5065323;28;19943;-83
2022/06/16 03:21:54;;;;;;;;;;;;;;;;;;5080654;28;19930;-83
2022/06/16 03:24:20;;;;;;;;;;;;;;;;;;5078264;28;20801;-83
2022/06/16 03:26:52;;;;;;;;;;;;;;;;;;5075509;28;20398;-82
2022/06/16 03:29:18;;;;;;;;;;;;;;;;;;5062210;28;20136;-82
2022/06/16 03:31:44;;;;;;;;;;;;;;;;;;5063222;28;19934;-83
2022/06/16 03:34:10;;;;;;;;;;;;;;;;;;5077665;28;19946;-83
2022/06/16 03:36:36;;;;;;;;;;;;;;;;;;5081116;28;19924;-83
2022/06/16 03:39:04;;;;;;;;;;;;;;;;;;5078332;28;20335;-83
2022/06/16 03:41:30;;;;;;;;;;;;;;;;;;5082148;28;19924;-83
2022/06/16 03:43:56;;;;;;;;;;;;;;;;;;5077934;28;20670;-84
2022/06/16 03:46:22;;;;;;;;;;;;;;;;;;5082313;28;19925;-82
2022/06/16 03:48:48;;;;;;;;;;;;;;;;;;5064921;28;19924;-82
2022/06/16 03:51:14;;;;;;;;;;;;;;;;;;5064188;28;19935;-82
2022/06/16 03:53:40;;;;;;;;;;;;;;;;;;5065310;28;19976;-84
2022/06/16 03:56:05;;;;;;;;;;;;;;;;;;5082072;28;19924;-83
2022/06/16 03:58:31;;;;;;;;;;;;;;;;;;5080012;28;19924;-84
2022/06/16 04:00:57;;;;;;;;;;;;;;;;;;5065786;28;19934;-84
2022/06/16 04:06:08;;;;;;;;;;;;;;;;;;5084064;28;19939;-83
2022/06/16 04:08:34;;;;;;;;;;;;;;;;;;5079607;28;19923;-84
2022/06/16 04:11:26;;;;;;;;;;;;;;;;;;5076182;28;19930;-83
2022/06/16 04:13:46;;;;;;;;;;;;;;;;;;5085221;28;19977;-84
2022/06/16 04:16:12;;;;;;;;;;;;;;;;;;5083781;28;19951;-83
2022/06/16 04:18:38;;;;;;;;;;;;;;;;;;5056878;28;19927;-85
2022/06/16 04:21:03;;;;;;;;;;;;;;;;;;5076266;28;19978;-79
2022/06/16 04:23:29;;;;;;;;;;;;;;;;;;5076745;28;21116;-85
2022/06/16 04:25:55;;;;;;;;;;;;;;;;;;5078273;28;20018;-79
2022/06/16 04:28:21;;;;;;;;;;;;;;;;;;5060219;28;20565;-79
2022/06/16 04:30:47;;;;;;;;;;;;;;;;;;5076698;28;19930;-81
2022/06/16 04:33:13;;;;;;;;;;;;;;;;;;5055414;28;19924;-80
2022/06/16 04:35:39;;;;;;;;;;;;;;;;;;5083359;28;19966;-81
2022/06/16 04:38:05;;;;;;;;;;;;;;;;;;5078679;28;19927;-80
2022/06/16 04:40:31;;;;;;;;;;;;;;;;;;5060409;28;19931;-81
2022/06/16 04:42:57;;;;;;;;;;;;;;;;;;5057085;28;19970;-81
2022/06/16 04:45:23;;;;;;;;;;;;;;;;;;5056095;28;19975;-79
2022/06/16 04:47:49;;;;;;;;;;;;;;;;;;5081319;28;19924;-81
2022/06/16 04:50:18;;;;;;;;;;;;;;;;;;5096775;28;19928;-81
2022/06/16 04:52:44;;;;;;;;;;;;;;;;;;5082294;28;19936;-78
2022/06/16 04:55:10;;;;;;;;;;;;;;;;;;5075424;28;19989;-80
2022/06/16 04:57:36;;;;;;;;;;;;;;;;;;5060932;28;19928;-80
2022/06/16 05:00:02;;;;;;;;;;;;;;;;;;5097215;28;19925;-80
2022/06/16 05:02:28;;;;;;;;;;;;;;;;;;5076503;28;19924;-79
2022/06/16 05:04:54;;;;;;;;;;;;;;;;;;5066137;28;20355;-79
2022/06/16 05:07:20;;;;;;;;;;;;;;;;;;5080989;28;19924;-80
2022/06/16 05:09:45;;;;;;;;;;;;;;;;;;5060550;28;19925;-83
2022/06/16 05:12:12;;;;;;;;;;;;;;;;;;5079338;28;19928;-78
2022/06/16 05:14:38;;;;;;;;;;;;;;;;;;5071569;28;19924;-77
2022/06/16 05:17:04;;;;;;;;;;;;;;;;;;5083607;28;20007;-80
2022/06/16 05:19:31;;;;;;;;;;;;;;;;;;5068528;28;20482;-82
2022/06/16 05:21:57;;;;;;;;;;;;;;;;;;5066647;28;20006;-81
2022/06/16 05:24:23;;;;;;;;;;;;;;;;;;5075564;28;20295;-81
2022/06/16 05:26:48;;;;;;;;;;;;;;;;;;5056647;28;19932;-81
2022/06/16 05:29:14;;;;;;;;;;;;;;;;;;5073376;28;19934;-81
2022/06/16 05:31:40;;;;;;;;;;;;;;;;;;5066417;28;20367;-81
2022/06/16 05:34:06;;;;;;;;;;;;;;;;;;5088522;28;20271;-84
2022/06/16 05:36:32;;;;;;;;;;;;;;;;;;5080788;28;19924;-82
2022/06/16 05:38:58;;;;;;;;;;;;;;;;;;5060740;28;19924;-82
2022/06/16 05:41:24;;;;;;;;;;;;;;;;;;5073313;28;19928;-82
2022/06/16 05:43:50;;;;;;;;;;;;;;;;;;5064671;28;19928;-81
2022/06/16 05:46:16;;;;;;;;;;;;;;;;;;5104345;28;19931;-81
2022/06/16 05:48:42;;;;;;;;;;;;;;;;;;5057330;28;20003;-81
2022/06/16 05:51:09;;;;;;;;;;;;;;;;;;5060569;28;19999;-83
2022/06/16 05:53:35;;;;;;;;;;;;;;;;;;5073789;28;19936;-82
2022/06/16 05:56:01;;;;;;;;;;;;;;;;;;5078304;28;19925;-82
2022/06/16 05:58:27;;;;;;;;;;;;;;;;;;5061029;28;19973;-82
2022/06/16 06:00:53;;;;;;;;;;;;;;;;;;5081712;28;20358;-81
2022/06/16 06:03:19;;;;;;;;;;;;;;;;;;5069171;28;20018;-81
2022/06/16 06:05:45;;;;;;;;;;;;;;;;;;5066544;28;19939;-82
2022/06/16 06:16:35;;;;;;;;;;;;;;;;;;5089561;28;20297;-84
2022/06/16 06:19:23;;;;;;;;;;;;;;;;;;5056407;28;19932;-82
2022/06/16 06:22:03;;;;;;;;;;;;;;;;;;5074450;28;19935;-85
2022/06/16 06:24:29;;;;;;;;;;;;;;;;;;5091216;28;19924;-82
2022/06/16 06:26:56;;;;;;;;;;;;;;;;;;5072821;28;20027;-82
2022/06/16 06:29:22;;;;;;;;;;;;;;;;;;5077206;28;19924;-81
2022/06/16 06:31:48;;;;;;;;;;;;;;;;;;5085539;28;19930;-81
2022/06/16 06:34:14;;;;;;;;;;;;;;;;;;5074656;28;19924;-82
2022/06/16 06:36:40;;;;;;;;;;;;;;;;;;5076108;28;19970;-82
2022/06/16 06:39:06;;;;;;;;;;;;;;;;;;5057023;28;19928;-82
2022/06/16 06:41:32;;;;;;;;;;;;;;;;;;5078458;28;19965;-82
2022/06/16 06:43:59;;;;;;;;;;;;;;;;;;5070019;28;19924;-82
2022/06/16 06:46:25;;;;;;;;;;;;;;;;;;5066525;28;19935;-82
2022/06/16 06:48:51;;;;;;;;;;;;;;;;;;5081770;28;20025;-81
2022/06/16 06:51:17;;;;;;;;;;;;;;;;;;5085935;28;19924;-82
2022/06/16 06:53:43;;;;;;;;;;;;;;;;;;5061908;28;19924;-82
2022/06/16 06:56:09;;;;;;;;;;;;;;;;;;5064667;28;20058;-81
2022/06/16 06:58:35;;;;;;;;;;;;;;;;;;5079472;28;20007;-82
2022/06/16 07:01:01;;;;;;;;;;;;;;;;;;5070121;28;20010;-81
2022/06/16 07:03:27;;;;;;;;;;;;;;;;;;5080068;28;19924;-83
2022/06/16 07:05:53;;;;;;;;;;;;;;;;;;5078054;28;20376;-82
2022/06/16 07:08:19;;;;;;;;;;;;;;;;;;5085722;28;20398;-82
2022/06/16 07:10:45;;;;;;;;;;;;;;;;;;5063874;28;19928;-82
2022/06/16 07:13:11;;;;;;;;;;;;;;;;;;5063779;28;20006;-83
2022/06/16 07:15:37;;;;;;;;;;;;;;;;;;5087296;28;19923;-82
2022/06/16 07:18:03;;;;;;;;;;;;;;;;;;5087143;28;19924;-82
2022/06/16 07:20:30;;;;;;;;;;;;;;;;;;5096446;28;19931;-83
2022/06/16 07:22:56;;;;;;;;;;;;;;;;;;5080902;28;20334;-82
2022/06/16 07:25:22;;;;;;;;;;;;;;;;;;5060509;28;19974;-82
2022/06/16 07:27:48;;;;;;;;;;;;;;;;;;5078588;28;19924;-81
2022/06/16 07:30:14;;;;;;;;;;;;;;;;;;5069355;28;19927;-82
2022/06/16 07:32:40;;;;;;;;;;;;;;;;;;5079522;28;19920;-82
2022/06/16 07:35:06;;;;;;;;;;;;;;;;;;5062444;28;19924;-82
2022/06/16 07:37:32;;;;;;;;;;;;;;;;;;5086821;28;19928;-82
2022/06/16 07:39:58;;;;;;;;;;;;;;;;;;5064768;28;19923;-85
2022/06/16 07:42:24;;;;;;;;;;;;;;;;;;5070736;28;21080;-82
2022/06/16 07:44:50;;;;;;;;;;;;;;;;;;5083752;28;19934;-82
2022/06/16 07:47:15;;;;;;;;;;;;;;;;;;5082336;28;19973;-81
2022/06/16 07:49:43;;;;;;;;;;;;;;;;;;5077332;28;19978;-82
2022/06/16 07:52:09;;;;;;;;;;;;;;;;;;5083353;28;19923;-82
2022/06/16 07:54:34;;;;;;;;;;;;;;;;;;5083934;28;19934;-83
2022/06/16 07:57:00;;;;;;;;;;;;;;;;;;5084041;28;19924;-84
2022/06/16 07:59:26;;;;;;;;;;;;;;;;;;5095916;28;19928;-87
2022/06/16 08:01:54;;;;;;;;;;;;;;;;;;5063403;28;19931;-84
2022/06/16 08:04:20;;;;;;;;;;;;;;;;;;5079157;28;19924;-85
2022/06/16 08:06:46;;;;;;;;;;;;;;;;;;5070467;28;20423;-83
2022/06/16 08:09:12;;;;;;;;;;;;;;;;;;5087240;28;20373;-83
2022/06/16 08:14:22;;;;;;;;;;;;;;;;;;5082709;28;20469;-83
2022/06/16 08:16:48;;;;;;;;;;;;;;;;;;5077491;28;20011;-82
2022/06/16 08:19:14;;;;;;;;;;;;;;;;;;5098559;28;20518;-85
2022/06/16 08:21:40;;;;;;;;;;;;;;;;;;5077333;28;20426;-83
2022/06/16 08:24:06;;;;;;;;;;;;;;;;;;5076363;28;19924;-84
2022/06/16 08:26:32;;;;;;;;;;;;;;;;;;5082481;28;19936;-83
2022/06/16 08:28:58;;;;;;;;;;;;;;;;;;5059256;28;19928;-87
2022/06/16 08:31:24;;;;;;;;;;;;;;;;;;5085344;28;19924;-86
2022/06/16 08:33:50;;;;;;;;;;;;;;;;;;5076023;28;20421;-85
2022/06/16 08:36:16;;;;;;;;;;;;;;;;;;5059555;28;19928;-85
2022/06/16 08:38:42;;;;;;;;;;;;;;;;;;5075377;28;19946;-85
2022/06/16 08:41:15;;;;;;;;;;;;;;;;;;5059554;28;20347;-86
2022/06/16 08:43:41;;;;;;;;;;;;;;;;;;5075142;28;19924;-85
2022/06/16 08:46:07;;;;;;;;;;;;;;;;;;5085065;28;19949;-84
2022/06/16 08:48:33;;;;;;;;;;;;;;;;;;5058645;28;19924;-84
2022/06/16 08:50:58;;;;;;;;;;;;;;;;;;5075888;28;19969;-85
2022/06/16 08:53:24;;;;;;;;;;;;;;;;;;5058177;28;19932;-86
2022/06/16 08:55:50;;;;;;;;;;;;;;;;;;5090561;28;19930;-83
2022/06/16 08:58:16;;;;;;;;;;;;;;;;;;5074893;28;20403;-84
2022/06/16 09:00:42;;;;;;;;;;;;;;;;;;5092861;28;20016;-84
2022/06/16 09:03:09;;;;;;;;;;;;;;;;;;5060704;28;19939;-84
2022/06/16 09:05:35;;;;;;;;;;;;;;;;;;5070185;28;19935;-87
2022/06/16 09:08:01;;;;;;;;;;;;;;;;;;5059018;28;20007;-86
2022/06/16 09:10:27;;;;;;;;;;;;;;;;;;5060292;28;20310;-84
2022/06/16 09:12:53;;;;;;;;;;;;;;;;;;5090224;28;19928;-83
2022/06/16 09:15:21;;;;;;;;;;;;;;;;;;5075460;28;20397;-83
2022/06/16 09:17:47;;;;;;;;;;;;;;;;;;5060965;28;20768;-83
2022/06/16 09:20:13;;;;;;;;;;;;;;;;;;5075503;28;20386;-84
2022/06/16 09:22:39;;;;;;;;;;;;;;;;;;5071268;28;19924;-85
2022/06/16 09:25:05;;;;;;;;;;;;;;;;;;5083904;28;20405;-84
2022/06/16 09:27:31;;;;;;;;;;;;;;;;;;5070786;28;19924;-84
2022/06/16 09:29:57;;;;;;;;;;;;;;;;;;5075030;28;19923;-84
2022/06/16 09:32:23;;;;;;;;;;;;;;;;;;5081347;28;19924;-85
2022/06/16 09:34:49;;;;;;;;;;;;;;;;;;5071345;28;19927;-84
2022/06/16 09:37:15;;;;;;;;;;;;;;;;;;5075402;28;20002;-83
2022/06/16 09:39:40;;;;;;;;;;;;;;;;;;5057918;28;19925;-88
2022/06/16 09:44:51;;;;;;;;;;;;;;;;;;5088849;28;19998;-82
2022/06/16 09:47:17;;;;;;;;;;;;;;;;;;5075038;28;19971;-82
2022/06/16 09:49:43;;;;;;;;;;;;;;;;;;5074306;28;20011;-81
2022/06/16 09:52:09;;;;;;;;;;;;;;;;;;5077322;28;19932;-82
2022/06/16 09:54:35;;;;;;;;;;;;;;;;;;5066808;28;19928;-81
2022/06/16 09:57:01;;;;;;;;;;;;;;;;;;5094191;28;19988;-82
2022/06/16 09:59:27;;;;;;;;;;;;;;;;;;5078205;28;19932;-81
2022/06/16 10:01:53;;;;;;;;;;;;;;;;;;5074114;28;19924;-81
2022/06/16 10:04:19;;;;;;;;;;;;;;;;;;5057629;28;19930;-81
2022/06/16 10:06:48;;;;;;;;;;;;;;;;;;5079179;28;19931;-81
2022/06/16 10:09:15;;;;;;;;;;;;;;;;;;5078308;28;19928;-82
2022/06/16 10:11:41;;;;;;;;;;;;;;;;;;5074644;28;20374;-82
2022/06/16 10:14:07;;;;;;;;;;;;;;;;;;5078933;28;19931;-81
2022/06/16 10:16:33;;;;;;;;;;;;;;;;;;5071928;28;19924;-82
2022/06/16 10:18:59;;;;;;;;;;;;;;;;;;5062327;28;19924;-83
2022/06/16 10:21:25;;;;;;;;;;;;;;;;;;5080206;28;19981;-82
2022/06/16 10:23:51;;;;;;;;;;;;;;;;;;5077409;28;20003;-81
2022/06/16 10:26:17;;;;;;;;;;;;;;;;;;5062840;28;19924;-81
2022/06/16 10:28:43;;;;;;;;;;;;;;;;;;5089314;28;20347;-81
2022/06/16 10:31:09;;;;;;;;;;;;;;;;;;5077218;28;20682;-82
2022/06/16 10:33:35;;;;;;;;;;;;;;;;;;5078299;28;19929;-83
2022/06/16 10:36:01;;;;;;;;;;;;;;;;;;5081098;28;19931;-82
2022/06/16 10:38:28;;;;;;;;;;;;;;;;;;5096926;28;19924;-82
2022/06/16 10:40:55;;;;;;;;;;;;;;;;;;5085690;28;19920;-83
2022/06/16 10:43:21;;;;;;;;;;;;;;;;;;5063014;28;19970;-82
2022/06/16 10:45:47;;;;;;;;;;;;;;;;;;5087261;28;19927;-83
2022/06/16 10:48:13;;;;;;;;;;;;;;;;;;5096043;28;19924;-84
2022/06/16 10:50:39;;;;;;;;;;;;;;;;;;5099291;28;19970;-83
2022/06/16 10:53:05;;;;;;;;;;;;;;;;;;5099711;28;19977;-82
2022/06/16 10:55:31;;;;;;;;;;;;;;;;;;5099421;28;19923;-82
2022/06/16 10:57:58;;;;;;;;;;;;;;;;;;5099736;28;19931;-84
2022/06/16 11:00:24;;;;;;;;;;;;;;;;;;5093932;28;19920;-81
2022/06/16 11:02:50;;;;;;;;;;;;;;;;;;5078126;28;19936;-81
2022/06/16 11:05:15;;;;;;;;;;;;;;;;;;5078202;28;19928;-81
2022/06/16 11:07:41;;;;;;;;;;;;;;;;;;5078182;28;19928;-81
2022/06/16 11:10:07;;;;;;;;;;;;;;;;;;5078260;28;19932;-81
2022/06/16 11:12:33;;;;;;;;;;;;;;;;;;5091013;28;20440;-81
2022/06/16 11:14:59;;;;;;;;;;;;;;;;;;5078272;28;20369;-82
2022/06/16 11:17:25;;;;;;;;;;;;;;;;;;5087066;28;19949;-81
2022/06/16 11:19:51;;;;;;;;;;;;;;;;;;5068644;28;19932;-80
2022/06/16 11:22:17;;;;;;;;;;;;;;;;;;5060945;28;19924;-82
2022/06/16 11:24:43;;;;;;;;;;;;;;;;;;5061121;28;19959;-81
2022/06/16 11:27:09;;;;;;;;;;;;;;;;;;5077369;28;19946;-81
2022/06/16 11:29:35;;;;;;;;;;;;;;;;;;5061169;28;19928;-87
2022/06/16 11:32:01;;;;;;;;;;;;;;;;;;5084185;28;19967;-82
2022/06/16 11:34:30;;;;;;;;;;;;;;;;;;5078889;28;19925;-83
2022/06/16 11:36:58;;;;;;;;;;;;;;;;;;5076748;28;20359;-83
2022/06/16 11:39:24;;;;;;;;;;;;;;;;;;5078163;28;19938;-83
2022/06/16 11:41:50;;;;;;;;;;;;;;;;;;5077982;28;19993;-82
2022/06/16 11:44:16;;;;;;;;;;;;;;;;;;5075979;28;19928;-88
2022/06/16 11:46:43;;;;;;;;;;;;;;;;;;5075630;28;19924;-87
2022/06/16 11:49:09;;;;;;;;;;;;;;;;;;5072754;28;19923;-84
2022/06/16 11:51:35;;;;;;;;;;;;;;;;;;5078776;28;19924;-88
2022/06/16 11:54:01;;;;;;;;;;;;;;;;;;5074148;28;20014;-83
2022/06/16 11:56:27;;;;;;;;;;;;;;;;;;5064227;28;19970;-81
2022/06/16 11:58:53;;;;;;;;;;;;;;;;;;5084272;28;19950;-81
2022/06/16 12:01:19;;;;;;;;;;;;;;;;;;5088343;28;19924;-88
2022/06/16 12:03:45;;;;;;;;;;;;;;;;;;5061840;28;19940;-88
2022/06/16 12:06:11;;;;;;;;;;;;;;;;;;5061351;28;19993;-87
2022/06/16 12:08:37;;;;;;;;;;;;;;;;;;5083524;28;19923;-84
2022/06/16 12:11:03;;;;;;;;;;;;;;;;;;5080165;28;20279;-84
2022/06/16 12:13:29;;;;;;;;;;;;;;;;;;5087243;28;19970;-87
2022/06/16 12:15:55;;;;;;;;;;;;;;;;;;5069457;28;19931;-87
2022/06/16 12:18:21;;;;;;;;;;;;;;;;;;5060913;28;19925;-85
2022/06/16 12:20:47;;;;;;;;;;;;;;;;;;5089746;28;19931;-83
2022/06/16 12:23:13;;;;;;;;;;;;;;;;;;5110011;28;19924;-81
2022/06/16 12:25:39;;;;;;;;;;;;;;;;;;5079241;28;19930;-86
2022/06/16 12:28:05;;;;;;;;;;;;;;;;;;5066970;28;20382;-82
2022/06/16 12:30:31;;;;;;;;;;;;;;;;;;5058976;28;19923;-85
2022/06/16 12:32:57;;;;;;;;;;;;;;;;;;5090547;28;19928;-80
2022/06/16 12:35:23;;;;;;;;;;;;;;;;;;5105122;28;19963;-82
2022/06/16 12:37:49;;;;;;;;;;;;;;;;;;5075797;28;19928;-82
2022/06/16 12:40:15;;;;;;;;;;;;;;;;;;5070702;28;20387;-81
2022/06/16 12:42:40;;;;;;;;;;;;;;;;;;5064942;28;19947;-82
2022/06/16 12:45:06;;;;;;;;;;;;;;;;;;5093692;28;19924;-82
2022/06/16 12:47:32;;;;;;;;;;;;;;;;;;5076739;28;19934;-80
2022/06/16 12:49:58;;;;;;;;;;;;;;;;;;5075380;28;20016;-81
2022/06/16 12:52:24;;;;;;;;;;;;;;;;;;5089471;28;19924;-81
2022/06/16 12:54:50;;;;;;;;;;;;;;;;;;5085242;28;20261;-81
2022/06/16 12:57:16;;;;;;;;;;;;;;;;;;5104989;28;19974;-81
2022/06/16 12:59:42;;;;;;;;;;;;;;;;;;5081670;28;19923;-81
2022/06/16 13:02:08;;;;;;;;;;;;;;;;;;5100271;28;19928;-81
2022/06/16 13:04:34;;;;;;;;;;;;;;;;;;5095193;28;19923;-81
2022/06/16 13:07:00;;;;;;;;;;;;;;;;;;5073851;28;19967;-82
2022/06/16 13:09:26;;;;;;;;;;;;;;;;;;5086096;28;19924;-81
2022/06/16 13:11:53;;;;;;;;;;;;;;;;;;5087885;28;19976;-80
2022/06/16 13:14:19;;;;;;;;;;;;;;;;;;5084252;28;19973;-81
2022/06/16 13:16:49;;;;;;;;;;;;;;;;;;5059621;28;19978;-80
2022/06/16 13:19:15;;;;;;;;;;;;;;;;;;5075257;28;19930;-81
2022/06/16 13:21:40;;;;;;;;;;;;;;;;;;5077787;28;19924;-81
2022/06/16 13:24:06;;;;;;;;;;;;;;;;;;5099264;28;19928;-81
2022/06/16 13:26:32;;;;;;;;;;;;;;;;;;5101328;28;19931;-85
2022/06/16 13:28:59;;;;;;;;;;;;;;;;;;5076301;28;20064;-85
2022/06/16 13:31:28;;;;;;;;;;;;;;;;;;5074785;28;19928;-83
2022/06/16 13:33:54;;;;;;;;;;;;;;;;;;5075378;28;19931;-82
2022/06/16 13:36:20;;;;;;;;;;;;;;;;;;5089507;28;19924;-82
2022/06/16 13:38:46;;;;;;;;;;;;;;;;;;5080144;28;19977;-82
2022/06/16 13:41:11;;;;;;;;;;;;;;;;;;5082038;28;19923;-82
2022/06/16 13:43:37;;;;;;;;;;;;;;;;;;5074873;28;19930;-83
2022/06/16 13:46:03;;;;;;;;;;;;;;;;;;5089199;28;20030;-82
2022/06/16 13:48:29;;;;;;;;;;;;;;;;;;5100834;28;19938;-83
2022/06/16 13:50:55;;;;;;;;;;;;;;;;;;5056997;28;19932;-82
2022/06/16 13:53:21;;;;;;;;;;;;;;;;;;5092340;28;19924;-84
2022/06/16 13:55:47;;;;;;;;;;;;;;;;;;5060811;28;19924;-81
2022/06/16 13:58:13;;;;;;;;;;;;;;;;;;5092928;28;19931;-83
2022/06/16 14:00:39;;;;;;;;;;;;;;;;;;5082537;28;19973;-84
2022/06/16 14:03:05;;;;;;;;;;;;;;;;;;5082758;28;19928;-83
2022/06/16 14:05:31;;;;;;;;;;;;;;;;;;5074376;28;19989;-84
2022/06/16 14:07:57;;;;;;;;;;;;;;;;;;5084157;28;20003;-84
2022/06/16 14:10:23;;;;;;;;;;;;;;;;;;5074103;28;19924;-86
2022/06/16 14:12:50;;;;;;;;;;;;;;;;;;5077708;28;20034;-84
2022/06/16 14:15:17;;;;;;;;;;;;;;;;;;5077802;28;19950;-82
2022/06/16 14:17:42;;;;;;;;;;;;;;;;;;5075240;28;20367;-82
2022/06/16 14:20:08;;;;;;;;;;;;;;;;;;5075753;28;19931;-83
2022/06/16 14:22:36;;;;;;;;;;;;;;;;;;5089141;28;19924;-84
2022/06/16 14:25:04;;;;;;;;;;;;;;;;;;5090402;28;19924;-82
2022/06/16 14:27:30;;;;;;;;;;;;;;;;;;5080727;28;19931;-85
2022/06/16 14:29:56;;;;;;;;;;;;;;;;;;5057025;28;19924;-84
2022/06/16 14:32:22;;;;;;;;;;;;;;;;;;5078559;28;19924;-84
2022/06/16 14:34:48;;;;;;;;;;;;;;;;;;5083298;28;20434;-87
2022/06/16 14:37:14;;;;;;;;;;;;;;;;;;5075057;28;20413;-82
2022/06/16 14:39:40;;;;;;;;;;;;;;;;;;5080493;28;20268;-83
2022/06/16 14:42:06;;;;;;;;;;;;;;;;;;5059796;28;20022;-85
2022/06/16 14:44:32;;;;;;;;;;;;;;;;;;5077938;28;20368;-89
2022/06/16 14:46:57;;;;;;;;;;;;;;;;;;5082470;28;19928;-88
2022/06/16 14:49:23;;;;;;;;;;;;;;;;;;5058318;28;19935;-86
2022/06/16 14:51:49;;;;;;;;;;;;;;;;;;5061215;28;20371;-87
2022/06/16 14:54:15;;;;;;;;;;;;;;;;;;5082076;28;20026;-86
2022/06/16 14:56:41;;;;;;;;;;;;;;;;;;5063409;28;19927;-86
2022/06/16 14:59:07;;;;;;;;;;;;;;;;;;5072647;28;19935;-86
2022/06/16 15:01:33;;;;;;;;;;;;;;;;;;5075566;28;19924;-86
2022/06/16 15:03:59;;;;;;;;;;;;;;;;;;5062225;28;19927;-85
2022/06/16 15:06:25;;;;;;;;;;;;;;;;;;5062139;28;19932;-87
2022/06/16 15:08:51;;;;;;;;;;;;;;;;;;5081145;28;19931;-87
2022/06/16 15:11:17;;;;;;;;;;;;;;;;;;5088627;28;19923;-86
2022/06/16 15:13:43;;;;;;;;;;;;;;;;;;5063998;28;19983;-85
2022/06/16 15:18:10;;;;;;;;;;;;;;;;;;5089752;28;20037;-78
2022/06/16 15:18:55;;;;;;;;;;;;;;;;;;5085883;28;19935;-82
2022/06/16 15:21:21;;;;;;;;;;;;;;;;;;5093387;28;19931;-86
2022/06/16 15:23:47;;;;;;;;;;;;;;;;;;5065773;28;19924;-86
2022/06/16 15:26:12;;;;;;;;;;;;;;;;;;5067675;28;19931;-87
2022/06/16 15:28:40;;;;;;;;;;;;;;;;;;5072247;28;19970;-89
2022/06/16 15:31:06;;;;;;;;;;;;;;;;;;5094174;28;20394;-93
2022/06/16 15:36:17;;;;;;;;;;;;;;;;;;5095723;28;19973;-89
2022/06/16 15:38:43;;;;;;;;;;;;;;;;;;5065325;28;19924;-84
2022/06/16 15:41:09;;;;;;;;;;;;;;;;;;5105475;28;20421;-92
2022/06/16 15:43:35;;;;;;;;;;;;;;;;;;5069775;28;19924;-89
2022/06/16 15:46:00;;;;;;;;;;;;;;;;;;5081612;28;19935;-92
2022/06/16 15:48:26;;;;;;;;;;;;;;;;;;5083281;28;19931;-93
2022/06/16 15:50:53;;;;;;;;;;;;;;;;;;5086534;28;20297;-88
2022/06/16 15:53:19;;;;;;;;;;;;;;;;;;5068426;28;19998;-87
2022/06/16 15:55:45;;;;;;;;;;;;;;;;;;5061970;28;19978;-89
2022/06/16 15:58:11;;;;;;;;;;;;;;;;;;5061058;28;20032;-85
2022/06/16 16:00:37;;;;;;;;;;;;;;;;;;5085519;28;19928;-89
2022/06/16 16:03:03;;;;;;;;;;;;;;;;;;5083502;28;19924;-93
2022/06/16 16:05:29;;;;;;;;;;;;;;;;;;5082935;28;19946;-93
2022/06/16 16:07:55;;;;;;;;;;;;;;;;;;5063326;28;19967;-89
2022/06/16 16:10:22;;;;;;;;;;;;;;;;;;5063323;28;19932;-83
2022/06/16 16:12:48;;;;;;;;;;;;;;;;;;5081383;28;19966;-81
2022/06/16 16:15:14;;;;;;;;;;;;;;;;;;5083833;28;19960;-82
2022/06/16 16:17:40;;;;;;;;;;;;;;;;;;5065971;28;19923;-83
2022/06/16 16:20:06;;;;;;;;;;;;;;;;;;5062587;28;19924;-82
2022/06/16 16:22:32;;;;;;;;;;;;;;;;;;5075997;28;19924;-84
2022/06/16 16:24:58;;;;;;;;;;;;;;;;;;5060675;28;19975;-81
2022/06/16 16:27:24;;;;;;;;;;;;;;;;;;5063591;28;19932;-83
2022/06/16 16:29:50;;;;;;;;;;;;;;;;;;5082323;28;20039;-80
2022/06/16 16:32:16;;;;;;;;;;;;;;;;;;5080226;28;19932;-83
2022/06/16 16:34:42;;;;;;;;;;;;;;;;;;5094907;28;20359;-82
2022/06/16 16:37:08;;;;;;;;;;;;;;;;;;5078998;28;20570;-83
2022/06/16 16:39:35;;;;;;;;;;;;;;;;;;5089183;28;19924;-83
2022/06/16 16:44:45;;;;;;;;;;;;;;;;;;5077633;28;20405;-83
2022/06/16 16:47:11;;;;;;;;;;;;;;;;;;5062235;28;19924;-83
2022/06/16 16:49:37;;;;;;;;;;;;;;;;;;5066032;28;20370;-84
2022/06/16 16:52:03;;;;;;;;;;;;;;;;;;5080548;28;19924;-84
2022/06/16 16:54:29;;;;;;;;;;;;;;;;;;5077374;28;19924;-85
2022/06/16 16:56:55;;;;;;;;;;;;;;;;;;5077606;28;19935;-85
2022/06/16 16:59:21;;;;;;;;;;;;;;;;;;5064987;28;19924;-86
2022/06/16 17:01:49;;;;;;;;;;;;;;;;;;5085542;28;19928;-92
2022/06/16 17:04:15;;;;;;;;;;;;;;;;;;5075091;28;19927;-90